createdAt,value
2018-10-09T00:04:42.695Z,15.00
2018-10-09T00:09:40.181Z,10.57
2018-10-09T00:14:37.677Z,11.90
2018-10-09T00:19:39.148Z,12.47
2018-10-09T00:24:36.792Z,16.70
2018-10-09T00:29:34.320Z,14.80
2018-10-09T00:34:31.793Z,11.83
2018-10-09T00:39:29.276Z,13.37
2018-10-09T00:44:26.758Z,19.03
2018-10-09T00:49:41.799Z,17.50
2018-10-09T00:54:39.406Z,19.97
2018-10-09T00:59:39.034Z,17.53
2018-10-09T01:04:38.074Z,16.37
2018-10-09T01:09:37.848Z,17.80
2018-10-09T01:14:37.139Z,15.23
2018-10-09T01:19:35.862Z,11.63
2018-10-09T01:24:33.345Z,12.13
2018-10-09T01:29:30.827Z,13.77
2018-10-09T01:34:28.306Z,19.27
2018-10-09T01:39:25.777Z,16.30
2018-10-09T01:44:23.261Z,12.70
2018-10-09T01:49:32.507Z,14.07
2018-10-09T01:54:30.058Z,15.10
2018-10-09T01:59:27.525Z,15.47
2018-10-09T02:04:25.201Z,12.17
2018-10-09T02:09:22.806Z,14.03
2018-10-09T02:14:20.351Z,15.73
2018-10-09T02:24:33.604Z,14.23
2018-10-09T02:29:31.065Z,12.73
2018-10-09T02:34:28.533Z,17.53
2018-10-09T02:39:26.000Z,14.77
2018-10-09T02:44:23.477Z,18.43
2018-10-09T02:49:25.467Z,20.97
2018-10-09T02:54:23.093Z,14.43
2018-10-09T02:59:20.577Z,16.20
2018-10-09T03:04:18.062Z,18.83
2018-10-09T03:09:15.546Z,12.80
2018-10-09T03:14:13.095Z,13.60
2018-10-09T03:19:13.037Z,14.30
2018-10-09T03:24:10.521Z,18.17
2018-10-09T03:29:08.027Z,13.90
2018-10-09T03:34:05.877Z,19.63
2018-10-09T03:39:04.573Z,15.70
2018-10-09T03:44:02.084Z,14.57
2018-10-09T03:48:59.582Z,14.80
2018-10-09T03:53:57.070Z,15.50
2018-10-09T03:58:54.550Z,16.30
2018-10-09T04:03:52.056Z,16.47
2018-10-09T04:08:49.578Z,14.63
2018-10-09T04:13:47.066Z,13.53
2018-10-09T04:18:44.657Z,15.77
2018-10-09T04:23:42.182Z,20.23
2018-10-09T04:28:39.673Z,20.00
2018-10-09T04:33:39.916Z,17.57
2018-10-09T04:38:37.528Z,17.10
2018-10-09T04:43:43.963Z,20.30
2018-10-09T04:48:50.896Z,26.73
2018-10-09T04:53:51.975Z,23.07
2018-10-09T04:58:52.576Z,29.97
2018-10-09T05:03:57.984Z,31.43
2018-10-09T05:08:55.549Z,24.07
2018-10-09T05:13:53.045Z,24.73
2018-10-09T05:18:50.629Z,27.40
2018-10-09T05:23:48.129Z,23.87
2018-10-09T05:28:45.638Z,29.93
2018-10-09T05:33:43.144Z,31.60
2018-10-09T05:38:40.625Z,29.73
2018-10-09T05:43:38.177Z,28.43
2018-10-09T05:48:35.725Z,24.20
2018-10-09T05:53:33.239Z,41.80
2018-10-09T05:58:30.754Z,27.03
2018-10-09T06:03:28.233Z,35.87
2018-10-09T06:08:25.775Z,33.37
2018-10-09T06:13:23.281Z,29.67
2018-10-09T06:18:20.988Z,31.70
2018-10-09T06:23:18.474Z,27.30
2018-10-09T06:28:16.243Z,29.73
2018-10-09T06:33:13.715Z,31.60
2018-10-09T06:38:11.213Z,33.10
2018-10-09T06:43:08.683Z,42.70
2018-10-09T06:48:06.275Z,42.33
2018-10-09T06:53:03.842Z,39.67
2018-10-09T06:58:01.474Z,46.03
2018-10-09T07:02:58.994Z,33.93
2018-10-09T07:07:56.502Z,38.07
2018-10-09T07:12:54.454Z,38.60
2018-10-09T07:17:51.982Z,38.90
2018-10-09T07:22:49.521Z,44.73
2018-10-09T07:27:47.136Z,41.57
2018-10-09T07:32:44.639Z,34.60
2018-10-09T07:37:42.199Z,42.03
2018-10-09T07:42:39.745Z,43.07
2018-10-09T07:47:37.290Z,39.37
2018-10-09T07:52:34.837Z,45.07
2018-10-09T07:57:32.425Z,45.27
2018-10-09T08:02:29.949Z,48.80
2018-10-09T08:07:27.483Z,50.03
2018-10-09T08:12:25.049Z,37.10
2018-10-09T08:17:22.581Z,44.07
2018-10-09T08:22:20.113Z,39.33
2018-10-09T08:27:17.724Z,44.03
2018-10-09T08:32:15.241Z,34.50
2018-10-09T08:37:12.802Z,39.93
2018-10-09T08:42:10.313Z,42.70
2018-10-09T08:47:07.849Z,39.20
2018-10-09T08:52:05.445Z,37.30
2018-10-09T08:57:02.948Z,39.50
2018-10-09T09:02:00.502Z,35.60
2018-10-09T09:06:58.097Z,34.13
2018-10-09T09:11:55.621Z,37.70
2018-10-09T09:16:53.157Z,29.37
2018-10-09T09:21:50.674Z,40.03
2018-10-09T09:26:48.203Z,32.93
2018-10-09T09:31:46.896Z,41.93
2018-10-09T09:36:44.427Z,35.00
2018-10-09T09:41:41.945Z,28.50
2018-10-09T09:46:39.436Z,33.80
2018-10-09T09:51:36.965Z,40.77
2018-10-09T09:56:34.478Z,35.67
2018-10-09T10:01:37.708Z,28.30
2018-10-09T10:06:35.285Z,29.83
2018-10-09T10:11:32.830Z,28.93
2018-10-09T10:16:30.442Z,29.80
2018-10-09T10:21:28.063Z,30.60
2018-10-09T10:26:25.565Z,34.00
2018-10-09T10:31:23.123Z,33.33
2018-10-09T10:36:20.650Z,31.07
2018-10-09T10:41:18.185Z,29.73
2018-10-09T10:46:15.716Z,27.57
2018-10-09T10:51:13.246Z,38.03
2018-10-09T10:56:10.777Z,34.53
2018-10-09T11:01:08.309Z,30.90
2018-10-09T11:06:05.913Z,35.13
2018-10-09T11:11:03.457Z,41.90
2018-10-09T11:16:01.839Z,27.37
2018-10-09T11:20:59.368Z,32.70
2018-10-09T11:25:56.938Z,27.07
2018-10-09T11:30:54.713Z,36.97
2018-10-09T11:35:52.261Z,28.93
2018-10-09T11:40:49.750Z,27.40
2018-10-09T11:45:47.282Z,38.43
2018-10-09T11:50:44.915Z,32.87
2018-10-09T11:55:42.454Z,39.40
2018-10-09T12:00:41.230Z,34.17
2018-10-09T12:05:38.813Z,35.40
2018-10-09T12:10:36.443Z,39.50
2018-10-09T12:15:34.051Z,34.63
2018-10-09T12:20:32.922Z,33.97
2018-10-09T12:25:30.558Z,35.47
2018-10-09T12:30:28.094Z,42.93
2018-10-09T12:35:25.606Z,40.10
2018-10-09T12:40:24.757Z,41.20
2018-10-09T12:45:23.956Z,42.33
2018-10-09T12:50:24.208Z,40.43
2018-10-09T12:55:23.158Z,33.80
2018-10-09T13:00:22.802Z,36.47
2018-10-09T13:05:24.054Z,40.33
2018-10-09T13:10:21.679Z,39.13
2018-10-09T13:15:20.092Z,36.97
2018-10-09T13:20:18.769Z,41.80
2018-10-09T13:25:16.319Z,42.30
2018-10-09T13:30:13.882Z,38.07
2018-10-09T13:35:11.439Z,40.40
2018-10-09T13:40:08.973Z,49.63
2018-10-09T13:45:06.526Z,38.77
2018-10-09T13:50:05.493Z,34.77
2018-10-09T13:55:03.091Z,36.77
2018-10-09T14:00:00.642Z,38.73
2018-10-09T14:04:58.199Z,39.67
2018-10-09T14:09:55.724Z,47.23
2018-10-09T14:14:53.325Z,39.73
2018-10-09T14:19:57.774Z,37.10
2018-10-09T14:24:55.312Z,37.13
2018-10-09T14:29:55.790Z,39.67
2018-10-09T14:34:53.368Z,37.93
2018-10-09T14:39:50.908Z,36.30
2018-10-09T14:44:48.504Z,32.23
2018-10-09T14:49:50.029Z,36.33
2018-10-09T14:54:47.620Z,32.50
2018-10-09T14:59:45.152Z,35.37
2018-10-09T15:04:42.657Z,36.53
2018-10-09T15:09:40.198Z,32.40
2018-10-09T15:14:37.746Z,32.30
2018-10-09T15:19:40.280Z,35.13
2018-10-09T15:24:38.822Z,35.63
2018-10-09T15:29:36.394Z,23.53
2018-10-09T15:34:39.212Z,28.97
2018-10-09T15:39:38.193Z,26.57
2018-10-09T15:44:42.524Z,34.50
2018-10-09T15:49:46.096Z,29.27
2018-10-09T15:54:43.782Z,30.87
2018-10-09T15:59:41.298Z,29.27
2018-10-09T16:04:38.828Z,34.73
2018-10-09T16:09:37.376Z,32.13
2018-10-09T16:14:34.977Z,26.47
2018-10-09T16:19:42.652Z,24.23
2018-10-09T16:24:40.222Z,30.93
2018-10-09T16:29:37.765Z,25.90
2018-10-09T16:34:37.430Z,22.50
2018-10-09T16:39:35.399Z,33.00
2018-10-09T16:44:32.955Z,37.40
2018-10-09T16:49:31.008Z,24.40
2018-10-09T16:54:29.552Z,40.50
2018-10-09T16:59:27.244Z,27.00
2018-10-09T17:04:25.704Z,28.13
2018-10-09T17:09:24.542Z,26.00
2018-10-09T17:14:23.751Z,31.63
2018-10-09T17:19:24.276Z,42.47
2018-10-09T17:24:21.845Z,32.63
2018-10-09T17:29:19.516Z,33.23
2018-10-09T17:34:17.020Z,39.60
2018-10-09T17:39:14.621Z,34.03
2018-10-09T17:44:12.126Z,31.70
2018-10-09T17:49:09.739Z,25.60
2018-10-09T17:54:07.292Z,32.77
2018-10-09T17:59:04.801Z,37.13
2018-10-09T18:04:02.405Z,33.60
2018-10-09T18:08:59.927Z,26.93
2018-10-09T18:13:57.406Z,38.87
2018-10-09T18:18:55.224Z,32.63
2018-10-09T18:23:55.111Z,29.07
2018-10-09T18:28:52.762Z,30.00
2018-10-09T18:33:54.517Z,25.67
2018-10-09T18:39:01.639Z,31.50
2018-10-09T18:44:04.709Z,59.83
2018-10-09T18:49:05.229Z,40.80
2018-10-09T18:54:06.933Z,48.33
2018-10-09T18:59:04.713Z,44.70
2018-10-09T19:04:02.205Z,28.00
2018-10-09T19:08:59.689Z,27.00
2018-10-09T19:13:57.482Z,31.23
2018-10-09T19:18:54.970Z,36.30
2018-10-09T19:23:52.639Z,34.67
2018-10-09T19:28:50.130Z,29.57
2018-10-09T19:33:47.689Z,29.97
2018-10-09T19:38:45.217Z,31.60
2018-10-09T19:43:42.768Z,35.47
2018-10-09T19:48:40.256Z,41.60
2018-10-09T19:53:39.006Z,34.90
2018-10-09T19:58:36.577Z,33.63
2018-10-09T20:03:34.126Z,33.37
2018-10-09T20:08:31.665Z,33.80
2018-10-09T20:13:29.477Z,35.03
2018-10-09T20:18:27.981Z,32.70
2018-10-09T20:23:27.943Z,62.83
2018-10-09T20:28:28.943Z,143.50
2018-10-09T20:33:29.262Z,79.03
2018-10-09T20:38:28.349Z,106.50
2018-10-09T20:43:26.562Z,82.80
2018-10-09T20:48:24.398Z,36.47
2018-10-09T20:53:22.997Z,32.57
2018-10-09T20:58:20.558Z,39.17
2018-10-09T21:03:18.034Z,62.47
2018-10-09T21:08:15.625Z,120.50
2018-10-09T21:13:13.121Z,117.00
2018-10-09T21:18:10.687Z,108.10
2018-10-09T21:23:09.346Z,56.10
2018-10-09T21:28:06.981Z,41.67
2018-10-09T21:33:04.504Z,49.23
2018-10-09T21:38:03.637Z,42.40
2018-10-09T21:43:01.118Z,38.87
2018-10-09T21:48:00.682Z,38.07
2018-10-09T21:53:03.143Z,41.97
2018-10-09T21:58:03.342Z,36.23
2018-10-09T22:03:00.934Z,32.67
2018-10-09T22:07:58.419Z,36.67
2018-10-09T22:12:55.894Z,39.37
2018-10-09T22:17:53.405Z,36.13
2018-10-09T22:22:57.799Z,40.10
2018-10-09T22:27:56.221Z,32.17
2018-10-09T22:32:53.715Z,32.07
2018-10-09T22:37:51.214Z,32.13
2018-10-09T22:42:48.698Z,46.17
2018-10-09T22:47:46.202Z,31.13
2018-10-09T22:52:46.890Z,30.83
2018-10-09T22:57:44.509Z,31.10
2018-10-09T23:02:42.095Z,27.50
2018-10-09T23:07:40.034Z,18.77
2018-10-09T23:12:37.577Z,29.87
2018-10-09T23:17:35.889Z,28.90
2018-10-09T23:22:41.092Z,27.63
2018-10-09T23:27:38.897Z,26.60
2018-10-09T23:32:36.377Z,27.70
2018-10-09T23:37:33.878Z,29.23
2018-10-09T23:42:31.488Z,29.00
2018-10-09T23:47:28.949Z,38.27
2018-10-09T23:52:29.038Z,34.83
2018-10-09T23:57:26.626Z,41.90
